CYEN

Estevan Airport

Estevan, Saskatchewan, Canada
METAR CYEN 171400Z 09007KT 4SM FU SCT080 OVC250 15/14 A3008 RMK FU3AC1CI4 SLP193 DENSITY ALT 2200FT
Observed Flight Rules
Aug-17 @ 14:00 UTC (58 minutes ago) Marginal Visual Flight Rules
Wind Visibility Clouds Conditions
90° at 7 knots 4 miles
  • Scattered at 8,000' AGL
  • Overcast at 25,000' AGL
  • Smoke
Temperatures Readings
Current 15°C / 59°F
Dewpoint 14°C / 57°F
Humidity 94%
Altimeter 30.08" Hg
Pressure 1019.3 hPa
Elevation 581
METAR CYEN 171400Z 09007KT 4SM FU SCT080 OVC250 15/14 A3008 RMK FU3AC1CI4 SLP193 DENSITY ALT 2200FT
Observed Flight Rules
Aug-17 @ 14:00 UTC
(58 minutes ago)
MVFR
Wind Visibility
90° at 7 knots 4 miles
Clouds
  • Scattered at 8,000' AGL
  • Overcast at 25,000' AGL
Conditions
  • Smoke
Temperature Dewpoint
15°C / 59°F 14°C / 57°F
Humidity Altimeter Pressure
94% 30.08" Hg 1019.3 hPa